sensor_id;sensor_type;location;lat;lon;timestamp;P1;durP1;ratioP1;P2;durP2;ratioP2
59042;SDS011;44826;51.596;5.624;2022-10-17T00:01:34;7.50;;;4.00;;
59042;SDS011;44826;51.596;5.624;2022-10-17T00:03:59;6.05;;;3.95;;
59042;SDS011;44826;51.596;5.624;2022-10-17T00:06:25;6.80;;;4.32;;
59042;SDS011;44826;51.596;5.624;2022-10-17T00:08:50;4.50;;;3.80;;
59042;SDS011;44826;51.596;5.624;2022-10-17T00:11:17;6.13;;;4.15;;
59042;SDS011;44826;51.596;5.624;2022-10-17T00:13:44;5.10;;;4.13;;
59042;SDS011;44826;51.596;5.624;2022-10-17T00:16:10;5.95;;;4.30;;
59042;SDS011;44826;51.596;5.624;2022-10-17T00:18:35;5.68;;;4.30;;
59042;SDS011;44826;51.596;5.624;2022-10-17T00:21:00;6.65;;;4.07;;
59042;SDS011;44826;51.596;5.624;2022-10-17T00:23:26;7.03;;;3.83;;
59042;SDS011;44826;51.596;5.624;2022-10-17T00:25:59;5.63;;;4.05;;
59042;SDS011;44826;51.596;5.624;2022-10-17T00:28:26;5.95;;;4.03;;
59042;SDS011;44826;51.596;5.624;2022-10-17T00:30:55;5.28;;;4.25;;
59042;SDS011;44826;51.596;5.624;2022-10-17T00:33:21;6.45;;;4.22;;
59042;SDS011;44826;51.596;5.624;2022-10-17T00:35:47;5.13;;;3.95;;
59042;SDS011;44826;51.596;5.624;2022-10-17T00:38:12;7.65;;;4.35;;
59042;SDS011;44826;51.596;5.624;2022-10-17T00:40:37;5.65;;;4.18;;
59042;SDS011;44826;51.596;5.624;2022-10-17T00:43:02;5.68;;;4.15;;
59042;SDS011;44826;51.596;5.624;2022-10-17T00:45:29;5.85;;;4.07;;
59042;SDS011;44826;51.596;5.624;2022-10-17T00:47:59;5.13;;;4.10;;
59042;SDS011;44826;51.596;5.624;2022-10-17T00:50:29;6.88;;;4.22;;
59042;SDS011;44826;51.596;5.624;2022-10-17T00:52:55;5.40;;;4.13;;
59042;SDS011;44826;51.596;5.624;2022-10-17T00:55:36;7.30;;;4.50;;
59042;SDS011;44826;51.596;5.624;2022-10-17T00:58:06;5.60;;;4.50;;
59042;SDS011;44826;51.596;5.624;2022-10-17T01:00:31;7.60;;;4.18;;
59042;SDS011;44826;51.596;5.624;2022-10-17T01:02:56;7.82;;;4.40;;
59042;SDS011;44826;51.596;5.624;2022-10-17T01:05:22;7.10;;;4.50;;
59042;SDS011;44826;51.596;5.624;2022-10-17T01:07:47;6.22;;;4.63;;
59042;SDS011;44826;51.596;5.624;2022-10-17T01:10:16;6.68;;;4.32;;
59042;SDS011;44826;51.596;5.624;2022-10-17T01:18:12;6.75;;;4.32;;
59042;SDS011;44826;51.596;5.624;2022-10-17T01:23:24;5.80;;;4.35;;
59042;SDS011;44826;51.596;5.624;2022-10-17T01:31:53;6.57;;;5.00;;
59042;SDS011;44826;51.596;5.624;2022-10-17T01:34:32;6.50;;;4.93;;
59042;SDS011;44826;51.596;5.624;2022-10-17T01:37:05;6.20;;;4.97;;
59042;SDS011;44826;51.596;5.624;2022-10-17T01:39:46;8.07;;;5.50;;
59042;SDS011;44826;51.596;5.624;2022-10-17T01:42:17;10.27;;;5.28;;
59042;SDS011;44826;51.596;5.624;2022-10-17T01:44:55;6.90;;;5.05;;
59042;SDS011;44826;51.596;5.624;2022-10-17T01:47:26;8.23;;;5.10;;
59042;SDS011;44826;51.596;5.624;2022-10-17T01:49:56;7.40;;;5.20;;
59042;SDS011;44826;51.596;5.624;2022-10-17T01:52:27;6.18;;;5.13;;
59042;SDS011;44826;51.596;5.624;2022-10-17T01:57:37;8.55;;;5.05;;
59042;SDS011;44826;51.596;5.624;2022-10-17T02:00:06;6.57;;;5.05;;
59042;SDS011;44826;51.596;5.624;2022-10-17T02:02:35;8.05;;;5.15;;
59042;SDS011;44826;51.596;5.624;2022-10-17T02:05:01;6.45;;;5.00;;
59042;SDS011;44826;51.596;5.624;2022-10-17T02:07:28;7.85;;;4.85;;
59042;SDS011;44826;51.596;5.624;2022-10-17T02:09:53;6.53;;;5.13;;
59042;SDS011;44826;51.596;5.624;2022-10-17T02:18:02;8.43;;;5.38;;
59042;SDS011;44826;51.596;5.624;2022-10-17T02:20:44;11.25;;;5.15;;
59042;SDS011;44826;51.596;5.624;2022-10-17T02:26:25;7.15;;;5.32;;
59042;SDS011;44826;51.596;5.624;2022-10-17T02:29:02;9.15;;;5.20;;
59042;SDS011;44826;51.596;5.624;2022-10-17T02:31:45;7.32;;;5.38;;
59042;SDS011;44826;51.596;5.624;2022-10-17T02:34:29;6.70;;;5.50;;
59042;SDS011;44826;51.596;5.624;2022-10-17T02:37:01;7.05;;;5.63;;
59042;SDS011;44826;51.596;5.624;2022-10-17T02:39:29;7.45;;;5.63;;
59042;SDS011;44826;51.596;5.624;2022-10-17T02:41:57;7.40;;;5.82;;
59042;SDS011;44826;51.596;5.624;2022-10-17T02:44:27;12.15;;;5.80;;
59042;SDS011;44826;51.596;5.624;2022-10-17T02:46:58;8.00;;;6.25;;
59042;SDS011;44826;51.596;5.624;2022-10-17T02:49:32;8.73;;;6.20;;
59042;SDS011;44826;51.596;5.624;2022-10-17T02:52:08;7.78;;;5.43;;
59042;SDS011;44826;51.596;5.624;2022-10-17T02:54:42;7.22;;;5.78;;
59042;SDS011;44826;51.596;5.624;2022-10-17T03:00:05;8.00;;;6.00;;
59042;SDS011;44826;51.596;5.624;2022-10-17T03:02:37;8.25;;;6.28;;
59042;SDS011;44826;51.596;5.624;2022-10-17T03:05:04;8.85;;;6.28;;
59042;SDS011;44826;51.596;5.624;2022-10-17T03:07:29;9.55;;;6.93;;
59042;SDS011;44826;51.596;5.624;2022-10-17T03:09:54;10.52;;;6.38;;
59042;SDS011;44826;51.596;5.624;2022-10-17T03:12:20;8.25;;;6.20;;
59042;SDS011;44826;51.596;5.624;2022-10-17T03:14:45;9.07;;;6.32;;
59042;SDS011;44826;51.596;5.624;2022-10-17T03:17:10;8.27;;;6.13;;
59042;SDS011;44826;51.596;5.624;2022-10-17T03:19:35;9.98;;;6.38;;
59042;SDS011;44826;51.596;5.624;2022-10-17T03:22:01;7.47;;;6.05;;
59042;SDS011;44826;51.596;5.624;2022-10-17T03:24:26;8.18;;;6.00;;
59042;SDS011;44826;51.596;5.624;2022-10-17T03:26:51;8.93;;;6.30;;
59042;SDS011;44826;51.596;5.624;2022-10-17T03:29:16;9.02;;;6.25;;
59042;SDS011;44826;51.596;5.624;2022-10-17T03:31:42;7.72;;;5.90;;
59042;SDS011;44826;51.596;5.624;2022-10-17T03:34:07;7.63;;;5.72;;
59042;SDS011;44826;51.596;5.624;2022-10-17T03:36:32;8.90;;;6.20;;
59042;SDS011;44826;51.596;5.624;2022-10-17T03:38:57;8.95;;;5.95;;
59042;SDS011;44826;51.596;5.624;2022-10-17T03:41:23;9.52;;;6.40;;
59042;SDS011;44826;51.596;5.624;2022-10-17T03:43:48;10.43;;;6.68;;
59042;SDS011;44826;51.596;5.624;2022-10-17T03:46:13;9.05;;;6.15;;
59042;SDS011;44826;51.596;5.624;2022-10-17T03:48:39;9.48;;;6.18;;
59042;SDS011;44826;51.596;5.624;2022-10-17T03:51:05;8.07;;;6.00;;
59042;SDS011;44826;51.596;5.624;2022-10-17T03:53:32;8.60;;;6.18;;
59042;SDS011;44826;51.596;5.624;2022-10-17T03:56:12;11.07;;;6.03;;
59042;SDS011;44826;51.596;5.624;2022-10-17T03:58:42;9.35;;;5.97;;
59042;SDS011;44826;51.596;5.624;2022-10-17T04:01:09;8.40;;;6.07;;
59042;SDS011;44826;51.596;5.624;2022-10-17T04:03:36;8.73;;;5.90;;
59042;SDS011;44826;51.596;5.624;2022-10-17T04:06:03;10.25;;;6.13;;
59042;SDS011;44826;51.596;5.624;2022-10-17T04:08:29;9.82;;;6.07;;
59042;SDS011;44826;51.596;5.624;2022-10-17T04:10:58;10.38;;;6.22;;
59042;SDS011;44826;51.596;5.624;2022-10-17T04:13:25;9.77;;;5.75;;
59042;SDS011;44826;51.596;5.624;2022-10-17T04:15:55;9.32;;;6.00;;
59042;SDS011;44826;51.596;5.624;2022-10-17T04:18:21;10.00;;;6.32;;
59042;SDS011;44826;51.596;5.624;2022-10-17T04:20:47;10.55;;;6.20;;
59042;SDS011;44826;51.596;5.624;2022-10-17T04:23:12;7.50;;;5.95;;
59042;SDS011;44826;51.596;5.624;2022-10-17T04:25:37;8.13;;;6.07;;
59042;SDS011;44826;51.596;5.624;2022-10-17T04:28:02;7.75;;;5.80;;
59042;SDS011;44826;51.596;5.624;2022-10-17T04:30:28;7.78;;;5.93;;
59042;SDS011;44826;51.596;5.624;2022-10-17T04:32:53;9.65;;;6.00;;
59042;SDS011;44826;51.596;5.624;2022-10-17T04:35:18;9.88;;;5.82;;
59042;SDS011;44826;51.596;5.624;2022-10-17T04:37:44;8.20;;;6.15;;
59042;SDS011;44826;51.596;5.624;2022-10-17T04:40:09;8.40;;;6.15;;
59042;SDS011;44826;51.596;5.624;2022-10-17T04:42:34;9.10;;;5.63;;
59042;SDS011;44826;51.596;5.624;2022-10-17T04:45:00;9.00;;;5.70;;
59042;SDS011;44826;51.596;5.624;2022-10-17T04:47:25;9.25;;;5.75;;
59042;SDS011;44826;51.596;5.624;2022-10-17T04:49:50;8.27;;;5.65;;
59042;SDS011;44826;51.596;5.624;2022-10-17T04:52:16;8.38;;;5.72;;
59042;SDS011;44826;51.596;5.624;2022-10-17T04:54:41;8.68;;;5.70;;
59042;SDS011;44826;51.596;5.624;2022-10-17T04:57:06;7.47;;;5.75;;
59042;SDS011;44826;51.596;5.624;2022-10-17T04:59:32;7.95;;;5.47;;
59042;SDS011;44826;51.596;5.624;2022-10-17T05:01:57;8.68;;;5.63;;
59042;SDS011;44826;51.596;5.624;2022-10-17T05:04:22;8.80;;;5.50;;
59042;SDS011;44826;51.596;5.624;2022-10-17T05:06:49;6.90;;;5.10;;
59042;SDS011;44826;51.596;5.624;2022-10-17T05:09:14;10.23;;;5.80;;
59042;SDS011;44826;51.596;5.624;2022-10-17T05:11:40;10.23;;;5.47;;
59042;SDS011;44826;51.596;5.624;2022-10-17T05:14:07;9.05;;;5.15;;
59042;SDS011;44826;51.596;5.624;2022-10-17T05:16:32;7.28;;;5.15;;
59042;SDS011;44826;51.596;5.624;2022-10-17T05:18:57;9.90;;;5.47;;
59042;SDS011;44826;51.596;5.624;2022-10-17T05:21:23;8.35;;;5.40;;
59042;SDS011;44826;51.596;5.624;2022-10-17T05:23:49;7.03;;;5.38;;
59042;SDS011;44826;51.596;5.624;2022-10-17T05:26:15;8.00;;;4.78;;
59042;SDS011;44826;51.596;5.624;2022-10-17T05:28:41;7.10;;;5.40;;
59042;SDS011;44826;51.596;5.624;2022-10-17T05:31:07;8.18;;;5.63;;
59042;SDS011;44826;51.596;5.624;2022-10-17T05:33:33;8.40;;;5.22;;
59042;SDS011;44826;51.596;5.624;2022-10-17T05:36:00;7.47;;;5.45;;
59042;SDS011;44826;51.596;5.624;2022-10-17T05:38:26;8.35;;;5.70;;
59042;SDS011;44826;51.596;5.624;2022-10-17T05:40:55;7.20;;;5.32;;
59042;SDS011;44826;51.596;5.624;2022-10-17T05:43:22;7.30;;;5.57;;
59042;SDS011;44826;51.596;5.624;2022-10-17T05:45:47;7.63;;;5.28;;
59042;SDS011;44826;51.596;5.624;2022-10-17T05:48:12;6.55;;;5.05;;
59042;SDS011;44826;51.596;5.624;2022-10-17T05:50:38;6.63;;;4.88;;
59042;SDS011;44826;51.596;5.624;2022-10-17T05:53:03;8.90;;;5.03;;
59042;SDS011;44826;51.596;5.624;2022-10-17T05:55:28;7.00;;;4.93;;
59042;SDS011;44826;51.596;5.624;2022-10-17T05:57:53;6.93;;;5.10;;
59042;SDS011;44826;51.596;5.624;2022-10-17T06:00:19;7.72;;;4.90;;
59042;SDS011;44826;51.596;5.624;2022-10-17T06:02:45;8.02;;;5.20;;
59042;SDS011;44826;51.596;5.624;2022-10-17T06:05:11;8.45;;;5.25;;
59042;SDS011;44826;51.596;5.624;2022-10-17T06:07:37;9.25;;;4.55;;
59042;SDS011;44826;51.596;5.624;2022-10-17T06:10:03;7.10;;;4.88;;
59042;SDS011;44826;51.596;5.624;2022-10-17T06:12:30;6.88;;;5.25;;
59042;SDS011;44826;51.596;5.624;2022-10-17T06:14:55;5.95;;;4.85;;
59042;SDS011;44826;51.596;5.624;2022-10-17T06:17:20;8.32;;;5.18;;
59042;SDS011;44826;51.596;5.624;2022-10-17T06:19:45;6.35;;;4.65;;
59042;SDS011;44826;51.596;5.624;2022-10-17T06:22:11;6.57;;;4.80;;
59042;SDS011;44826;51.596;5.624;2022-10-17T06:24:37;8.45;;;4.97;;
59042;SDS011;44826;51.596;5.624;2022-10-17T06:27:02;7.30;;;4.95;;
59042;SDS011;44826;51.596;5.624;2022-10-17T06:29:27;6.45;;;5.00;;
59042;SDS011;44826;51.596;5.624;2022-10-17T06:31:53;5.90;;;4.75;;
59042;SDS011;44826;51.596;5.624;2022-10-17T06:34:18;7.03;;;4.88;;
59042;SDS011;44826;51.596;5.624;2022-10-17T06:36:43;6.07;;;4.70;;
59042;SDS011;44826;51.596;5.624;2022-10-17T06:39:09;7.70;;;4.82;;
59042;SDS011;44826;51.596;5.624;2022-10-17T06:41:34;6.47;;;4.80;;
59042;SDS011;44826;51.596;5.624;2022-10-17T06:43:59;7.20;;;4.90;;
59042;SDS011;44826;51.596;5.624;2022-10-17T06:46:25;7.45;;;4.45;;
59042;SDS011;44826;51.596;5.624;2022-10-17T06:48:51;7.63;;;4.88;;
59042;SDS011;44826;51.596;5.624;2022-10-17T06:51:16;6.80;;;4.85;;
59042;SDS011;44826;51.596;5.624;2022-10-17T06:53:41;6.63;;;4.53;;
59042;SDS011;44826;51.596;5.624;2022-10-17T06:56:07;6.93;;;5.00;;
59042;SDS011;44826;51.596;5.624;2022-10-17T06:58:34;8.07;;;5.18;;
59042;SDS011;44826;51.596;5.624;2022-10-17T07:01:11;8.05;;;4.97;;
59042;SDS011;44826;51.596;5.624;2022-10-17T07:03:37;7.25;;;4.82;;
59042;SDS011;44826;51.596;5.624;2022-10-17T07:06:04;7.40;;;5.18;;
59042;SDS011;44826;51.596;5.624;2022-10-17T07:08:30;7.22;;;5.25;;
59042;SDS011;44826;51.596;5.624;2022-10-17T07:10:55;7.45;;;5.20;;
59042;SDS011;44826;51.596;5.624;2022-10-17T07:13:21;7.05;;;4.57;;
59042;SDS011;44826;51.596;5.624;2022-10-17T07:15:47;6.40;;;4.88;;
59042;SDS011;44826;51.596;5.624;2022-10-17T07:18:12;6.18;;;4.43;;
59042;SDS011;44826;51.596;5.624;2022-10-17T07:20:38;8.38;;;4.90;;
59042;SDS011;44826;51.596;5.624;2022-10-17T07:23:04;6.28;;;4.72;;
59042;SDS011;44826;51.596;5.624;2022-10-17T07:25:29;7.47;;;4.90;;
59042;SDS011;44826;51.596;5.624;2022-10-17T07:27:55;7.57;;;4.55;;
59042;SDS011;44826;51.596;5.624;2022-10-17T07:30:20;5.72;;;4.80;;
59042;SDS011;44826;51.596;5.624;2022-10-17T07:32:46;9.48;;;4.78;;
59042;SDS011;44826;51.596;5.624;2022-10-17T07:35:12;7.40;;;5.00;;
59042;SDS011;44826;51.596;5.624;2022-10-17T07:37:38;5.78;;;4.60;;
59042;SDS011;44826;51.596;5.624;2022-10-17T07:40:04;10.30;;;4.90;;
59042;SDS011;44826;51.596;5.624;2022-10-17T07:42:32;5.22;;;4.35;;
59042;SDS011;44826;51.596;5.624;2022-10-17T07:44:58;7.20;;;4.72;;
59042;SDS011;44826;51.596;5.624;2022-10-17T07:47:23;6.18;;;4.60;;
59042;SDS011;44826;51.596;5.624;2022-10-17T07:49:49;8.30;;;4.55;;
59042;SDS011;44826;51.596;5.624;2022-10-17T07:52:14;6.72;;;4.70;;
59042;SDS011;44826;51.596;5.624;2022-10-17T07:54:40;6.07;;;4.70;;
59042;SDS011;44826;51.596;5.624;2022-10-17T07:57:06;7.45;;;5.18;;
59042;SDS011;44826;51.596;5.624;2022-10-17T07:59:32;7.18;;;4.57;;
59042;SDS011;44826;51.596;5.624;2022-10-17T08:01:58;6.97;;;4.60;;
59042;SDS011;44826;51.596;5.624;2022-10-17T08:04:25;7.00;;;4.65;;
59042;SDS011;44826;51.596;5.624;2022-10-17T08:06:50;6.50;;;4.53;;
59042;SDS011;44826;51.596;5.624;2022-10-17T08:09:16;10.02;;;4.35;;
59042;SDS011;44826;51.596;5.624;2022-10-17T08:11:42;8.50;;;4.40;;
59042;SDS011;44826;51.596;5.624;2022-10-17T08:14:08;7.55;;;4.30;;
59042;SDS011;44826;51.596;5.624;2022-10-17T08:16:37;9.07;;;4.50;;
59042;SDS011;44826;51.596;5.624;2022-10-17T08:19:02;7.93;;;4.47;;
59042;SDS011;44826;51.596;5.624;2022-10-17T08:21:28;8.05;;;4.32;;
59042;SDS011;44826;51.596;5.624;2022-10-17T08:23:53;8.90;;;4.30;;
59042;SDS011;44826;51.596;5.624;2022-10-17T08:26:19;5.53;;;4.05;;
59042;SDS011;44826;51.596;5.624;2022-10-17T08:28:45;5.50;;;4.20;;
59042;SDS011;44826;51.596;5.624;2022-10-17T08:31:11;10.63;;;4.00;;
59042;SDS011;44826;51.596;5.624;2022-10-17T08:33:38;6.63;;;4.40;;
59042;SDS011;44826;51.596;5.624;2022-10-17T08:36:05;6.88;;;4.22;;
59042;SDS011;44826;51.596;5.624;2022-10-17T08:38:31;7.55;;;4.55;;
59042;SDS011;44826;51.596;5.624;2022-10-17T08:40:59;5.88;;;3.97;;
59042;SDS011;44826;51.596;5.624;2022-10-17T08:43:32;8.05;;;3.88;;
59042;SDS011;44826;51.596;5.624;2022-10-17T08:46:20;8.68;;;4.05;;
59042;SDS011;44826;51.596;5.624;2022-10-17T08:48:45;8.55;;;4.30;;
59042;SDS011;44826;51.596;5.624;2022-10-17T08:51:18;5.07;;;3.97;;
59042;SDS011;44826;51.596;5.624;2022-10-17T08:53:51;6.95;;;4.38;;
59042;SDS011;44826;51.596;5.624;2022-10-17T08:56:55;8.45;;;4.18;;
59042;SDS011;44826;51.596;5.624;2022-10-17T08:59:19;6.57;;;4.13;;
59042;SDS011;44826;51.596;5.624;2022-10-17T09:04:52;6.13;;;4.38;;
59042;SDS011;44826;51.596;5.624;2022-10-17T09:07:31;7.57;;;4.45;;
59042;SDS011;44826;51.596;5.624;2022-10-17T09:18:35;6.53;;;4.40;;
59042;SDS011;44826;51.596;5.624;2022-10-17T09:23:45;6.70;;;4.05;;
59042;SDS011;44826;51.596;5.624;2022-10-17T09:26:14;7.53;;;4.75;;
59042;SDS011;44826;51.596;5.624;2022-10-17T09:28:40;9.00;;;4.30;;
59042;SDS011;44826;51.596;5.624;2022-10-17T09:33:49;8.50;;;4.63;;
59042;SDS011;44826;51.596;5.624;2022-10-17T09:36:17;7.90;;;4.43;;
59042;SDS011;44826;51.596;5.624;2022-10-17T09:38:49;11.25;;;5.00;;
59042;SDS011;44826;51.596;5.624;2022-10-17T09:41:21;9.60;;;5.07;;
59042;SDS011;44826;51.596;5.624;2022-10-17T09:43:50;9.63;;;4.38;;
59042;SDS011;44826;51.596;5.624;2022-10-17T09:49:00;6.80;;;4.22;;
59042;SDS011;44826;51.596;5.624;2022-10-17T09:51:30;7.60;;;4.00;;
59042;SDS011;44826;51.596;5.624;2022-10-17T09:53:58;7.43;;;4.03;;
59042;SDS011;44826;51.596;5.624;2022-10-17T09:56:26;10.43;;;4.55;;
59042;SDS011;44826;51.596;5.624;2022-10-17T09:58:54;8.75;;;4.72;;
59042;SDS011;44826;51.596;5.624;2022-10-17T10:01:28;8.07;;;4.28;;
59042;SDS011;44826;51.596;5.624;2022-10-17T10:07:04;7.30;;;4.32;;
59042;SDS011;44826;51.596;5.624;2022-10-17T10:09:31;7.43;;;4.38;;
59042;SDS011;44826;51.596;5.624;2022-10-17T10:11:59;6.00;;;4.43;;
59042;SDS011;44826;51.596;5.624;2022-10-17T10:14:34;9.35;;;4.43;;
59042;SDS011;44826;51.596;5.624;2022-10-17T10:17:02;8.00;;;4.57;;
59042;SDS011;44826;51.596;5.624;2022-10-17T10:21:57;6.75;;;4.20;;
59042;SDS011;44826;51.596;5.624;2022-10-17T10:24:25;5.85;;;4.40;;
59042;SDS011;44826;51.596;5.624;2022-10-17T10:26:51;6.75;;;4.70;;
59042;SDS011;44826;51.596;5.624;2022-10-17T10:29:32;7.05;;;4.82;;
59042;SDS011;44826;51.596;5.624;2022-10-17T10:32:10;8.80;;;4.75;;
59042;SDS011;44826;51.596;5.624;2022-10-17T10:34:48;7.20;;;4.85;;
59042;SDS011;44826;51.596;5.624;2022-10-17T10:37:17;6.60;;;4.78;;
59042;SDS011;44826;51.596;5.624;2022-10-17T10:39:49;8.50;;;4.82;;
59042;SDS011;44826;51.596;5.624;2022-10-17T10:42:18;7.70;;;4.75;;
59042;SDS011;44826;51.596;5.624;2022-10-17T10:44:44;7.18;;;4.25;;
59042;SDS011;44826;51.596;5.624;2022-10-17T10:49:51;7.35;;;4.70;;
59042;SDS011;44826;51.596;5.624;2022-10-17T10:52:39;6.72;;;4.32;;
59042;SDS011;44826;51.596;5.624;2022-10-17T10:55:19;7.63;;;4.53;;
59042;SDS011;44826;51.596;5.624;2022-10-17T10:57:51;8.55;;;4.90;;
59042;SDS011;44826;51.596;5.624;2022-10-17T11:00:23;8.27;;;4.15;;
59042;SDS011;44826;51.596;5.624;2022-10-17T11:02:53;7.72;;;4.60;;
59042;SDS011;44826;51.596;5.624;2022-10-17T11:10:58;7.32;;;4.15;;
59042;SDS011;44826;51.596;5.624;2022-10-17T11:13:31;6.30;;;4.25;;
59042;SDS011;44826;51.596;5.624;2022-10-17T11:18:54;7.63;;;4.35;;
59042;SDS011;44826;51.596;5.624;2022-10-17T11:26:44;7.18;;;4.32;;
59042;SDS011;44826;51.596;5.624;2022-10-17T11:29:14;7.60;;;4.80;;
59042;SDS011;44826;51.596;5.624;2022-10-17T11:31:41;7.15;;;4.45;;
59042;SDS011;44826;51.596;5.624;2022-10-17T11:34:15;5.70;;;4.55;;
59042;SDS011;44826;51.596;5.624;2022-10-17T11:36:45;6.53;;;4.97;;
59042;SDS011;44826;51.596;5.624;2022-10-17T11:39:15;8.63;;;5.00;;
59042;SDS011;44826;51.596;5.624;2022-10-17T11:41:48;6.63;;;5.07;;
59042;SDS011;44826;51.596;5.624;2022-10-17T11:46:47;8.20;;;4.72;;
59042;SDS011;44826;51.596;5.624;2022-10-17T11:49:19;7.68;;;4.80;;
59042;SDS011;44826;51.596;5.624;2022-10-17T11:54:18;8.02;;;5.03;;
59042;SDS011;44826;51.596;5.624;2022-10-17T11:56:58;6.90;;;4.93;;
59042;SDS011;44826;51.596;5.624;2022-10-17T12:08:44;8.48;;;5.30;;
59042;SDS011;44826;51.596;5.624;2022-10-17T12:13:46;9.50;;;4.65;;
59042;SDS011;44826;51.596;5.624;2022-10-17T12:16:35;9.57;;;5.20;;
59042;SDS011;44826;51.596;5.624;2022-10-17T12:21:26;8.45;;;5.03;;
59042;SDS011;44826;51.596;5.624;2022-10-17T12:23:52;7.72;;;4.82;;
59042;SDS011;44826;51.596;5.624;2022-10-17T12:26:25;7.15;;;4.85;;
59042;SDS011;44826;51.596;5.624;2022-10-17T12:28:52;8.45;;;5.35;;
59042;SDS011;44826;51.596;5.624;2022-10-17T12:38:41;10.90;;;5.93;;
59042;SDS011;44826;51.596;5.624;2022-10-17T12:41:11;9.52;;;6.20;;
59042;SDS011;44826;51.596;5.624;2022-10-17T12:46:09;8.77;;;5.80;;
59042;SDS011;44826;51.596;5.624;2022-10-17T12:56:21;11.13;;;6.00;;
59042;SDS011;44826;51.596;5.624;2022-10-17T12:58:55;13.18;;;6.60;;
59042;SDS011;44826;51.596;5.624;2022-10-17T13:01:32;9.13;;;6.07;;
59042;SDS011;44826;51.596;5.624;2022-10-17T13:04:00;9.43;;;6.88;;
59042;SDS011;44826;51.596;5.624;2022-10-17T13:06:30;12.07;;;6.35;;
59042;SDS011;44826;51.596;5.624;2022-10-17T13:09:14;9.98;;;6.45;;
59042;SDS011;44826;51.596;5.624;2022-10-17T13:11:44;10.43;;;6.60;;
59042;SDS011;44826;51.596;5.624;2022-10-17T13:14:12;10.50;;;6.85;;
59042;SDS011;44826;51.596;5.624;2022-10-17T13:16:49;8.68;;;6.40;;
59042;SDS011;44826;51.596;5.624;2022-10-17T13:19:16;11.73;;;7.13;;
59042;SDS011;44826;51.596;5.624;2022-10-17T13:21:53;9.80;;;7.10;;
59042;SDS011;44826;51.596;5.624;2022-10-17T13:27:00;10.45;;;6.95;;
59042;SDS011;44826;51.596;5.624;2022-10-17T13:29:26;9.90;;;7.32;;
59042;SDS011;44826;51.596;5.624;2022-10-17T13:31:55;10.27;;;7.20;;
59042;SDS011;44826;51.596;5.624;2022-10-17T13:36:54;11.25;;;7.07;;
59042;SDS011;44826;51.596;5.624;2022-10-17T13:39:34;12.98;;;7.47;;
59042;SDS011;44826;51.596;5.624;2022-10-17T13:42:03;11.52;;;7.68;;
59042;SDS011;44826;51.596;5.624;2022-10-17T13:44:33;16.33;;;8.10;;
59042;SDS011;44826;51.596;5.624;2022-10-17T13:46:59;14.13;;;7.57;;
59042;SDS011;44826;51.596;5.624;2022-10-17T13:49:43;10.18;;;7.90;;
59042;SDS011;44826;51.596;5.624;2022-10-17T13:52:14;11.75;;;7.70;;
59042;SDS011;44826;51.596;5.624;2022-10-17T13:54:44;12.50;;;7.80;;
59042;SDS011;44826;51.596;5.624;2022-10-17T13:57:19;11.45;;;7.60;;
59042;SDS011;44826;51.596;5.624;2022-10-17T13:59:49;11.05;;;7.53;;
59042;SDS011;44826;51.596;5.624;2022-10-17T14:02:39;12.30;;;7.75;;
59042;SDS011;44826;51.596;5.624;2022-10-17T14:07:34;10.45;;;7.43;;
59042;SDS011;44826;51.596;5.624;2022-10-17T14:10:03;14.35;;;7.90;;
59042;SDS011;44826;51.596;5.624;2022-10-17T14:12:30;9.52;;;6.95;;
59042;SDS011;44826;51.596;5.624;2022-10-17T14:14:57;10.73;;;6.88;;
59042;SDS011;44826;51.596;5.624;2022-10-17T14:17:23;10.02;;;7.57;;
59042;SDS011;44826;51.596;5.624;2022-10-17T14:19:54;11.95;;;7.65;;
59042;SDS011;44826;51.596;5.624;2022-10-17T14:24:47;9.35;;;6.60;;
59042;SDS011;44826;51.596;5.624;2022-10-17T14:32:49;8.25;;;6.13;;
59042;SDS011;44826;51.596;5.624;2022-10-17T14:35:19;10.25;;;6.05;;
59042;SDS011;44826;51.596;5.624;2022-10-17T14:37:45;10.15;;;6.25;;
59042;SDS011;44826;51.596;5.624;2022-10-17T14:40:13;10.25;;;6.13;;
59042;SDS011;44826;51.596;5.624;2022-10-17T14:42:41;12.77;;;6.85;;
59042;SDS011;44826;51.596;5.624;2022-10-17T14:45:10;10.02;;;7.07;;
59042;SDS011;44826;51.596;5.624;2022-10-17T14:47:38;10.13;;;6.82;;
59042;SDS011;44826;51.596;5.624;2022-10-17T14:52:36;9.90;;;6.50;;
59042;SDS011;44826;51.596;5.624;2022-10-17T14:55:25;7.13;;;5.80;;
59042;SDS011;44826;51.596;5.624;2022-10-17T14:57:52;10.70;;;6.78;;
59042;SDS011;44826;51.596;5.624;2022-10-17T15:00:18;9.40;;;6.30;;
59042;SDS011;44826;51.596;5.624;2022-10-17T15:02:45;7.95;;;5.80;;
59042;SDS011;44826;51.596;5.624;2022-10-17T15:05:12;10.88;;;6.57;;
59042;SDS011;44826;51.596;5.624;2022-10-17T15:07:38;8.10;;;5.70;;
59042;SDS011;44826;51.596;5.624;2022-10-17T15:10:04;9.50;;;6.15;;
59042;SDS011;44826;51.596;5.624;2022-10-17T15:12:30;11.18;;;5.95;;
59042;SDS011;44826;51.596;5.624;2022-10-17T15:14:56;9.13;;;6.20;;
59042;SDS011;44826;51.596;5.624;2022-10-17T15:17:23;10.50;;;6.63;;
59042;SDS011;44826;51.596;5.624;2022-10-17T15:19:50;9.82;;;6.45;;
59042;SDS011;44826;51.596;5.624;2022-10-17T15:22:16;12.20;;;6.88;;
59042;SDS011;44826;51.596;5.624;2022-10-17T15:24:42;11.38;;;7.32;;
59042;SDS011;44826;51.596;5.624;2022-10-17T15:27:15;11.25;;;7.63;;
59042;SDS011;44826;51.596;5.624;2022-10-17T15:29:42;10.45;;;7.30;;
59042;SDS011;44826;51.596;5.624;2022-10-17T15:32:08;10.45;;;7.75;;
59042;SDS011;44826;51.596;5.624;2022-10-17T15:34:33;12.68;;;7.72;;
59042;SDS011;44826;51.596;5.624;2022-10-17T15:36:59;11.27;;;8.15;;
59042;SDS011;44826;51.596;5.624;2022-10-17T15:39:24;9.43;;;7.88;;
59042;SDS011;44826;51.596;5.624;2022-10-17T15:41:50;10.05;;;7.35;;
59042;SDS011;44826;51.596;5.624;2022-10-17T15:44:15;11.57;;;7.57;;
59042;SDS011;44826;51.596;5.624;2022-10-17T15:46:40;10.70;;;7.90;;
59042;SDS011;44826;51.596;5.624;2022-10-17T15:49:09;16.23;;;9.00;;
59042;SDS011;44826;51.596;5.624;2022-10-17T15:51:36;11.00;;;7.75;;
59042;SDS011;44826;51.596;5.624;2022-10-17T15:54:02;10.43;;;8.40;;
59042;SDS011;44826;51.596;5.624;2022-10-17T15:56:33;10.65;;;8.05;;
59042;SDS011;44826;51.596;5.624;2022-10-17T15:59:01;17.52;;;8.55;;
59042;SDS011;44826;51.596;5.624;2022-10-17T16:01:29;11.25;;;8.55;;
59042;SDS011;44826;51.596;5.624;2022-10-17T16:03:55;10.20;;;8.40;;
59042;SDS011;44826;51.596;5.624;2022-10-17T16:06:21;10.93;;;8.25;;
59042;SDS011;44826;51.596;5.624;2022-10-17T16:08:47;11.13;;;8.35;;
59042;SDS011;44826;51.596;5.624;2022-10-17T16:11:25;11.02;;;8.18;;
59042;SDS011;44826;51.596;5.624;2022-10-17T16:16:21;12.95;;;7.65;;
59042;SDS011;44826;51.596;5.624;2022-10-17T16:18:47;10.88;;;7.75;;
59042;SDS011;44826;51.596;5.624;2022-10-17T16:21:13;11.90;;;8.05;;
59042;SDS011;44826;51.596;5.624;2022-10-17T16:23:40;9.60;;;7.68;;
59042;SDS011;44826;51.596;5.624;2022-10-17T16:26:06;12.15;;;8.25;;
59042;SDS011;44826;51.596;5.624;2022-10-17T16:28:32;11.30;;;8.02;;
59042;SDS011;44826;51.596;5.624;2022-10-17T16:30:58;11.02;;;8.18;;
59042;SDS011;44826;51.596;5.624;2022-10-17T16:33:23;10.35;;;7.97;;
59042;SDS011;44826;51.596;5.624;2022-10-17T16:35:48;10.25;;;7.78;;
59042;SDS011;44826;51.596;5.624;2022-10-17T16:38:14;13.48;;;8.55;;
59042;SDS011;44826;51.596;5.624;2022-10-17T16:40:39;11.57;;;8.27;;
59042;SDS011;44826;51.596;5.624;2022-10-17T16:43:05;12.20;;;8.88;;
59042;SDS011;44826;51.596;5.624;2022-10-17T16:45:31;12.15;;;8.40;;
59042;SDS011;44826;51.596;5.624;2022-10-17T16:47:56;9.23;;;7.88;;
59042;SDS011;44826;51.596;5.624;2022-10-17T16:50:22;10.52;;;8.15;;
59042;SDS011;44826;51.596;5.624;2022-10-17T16:52:48;11.43;;;8.05;;
59042;SDS011;44826;51.596;5.624;2022-10-17T16:55:13;12.68;;;8.13;;
59042;SDS011;44826;51.596;5.624;2022-10-17T16:57:41;9.45;;;7.35;;
59042;SDS011;44826;51.596;5.624;2022-10-17T17:00:07;11.05;;;7.60;;